createdAt,value
2022-10-23T07:01:44.558Z,7.60
2022-10-23T07:06:39.155Z,7.80
2022-10-23T07:11:33.851Z,8.20
2022-10-23T07:16:28.884Z,8.50
2022-10-23T07:21:24.499Z,8.80
2022-10-23T07:26:21.348Z,9.10
2022-10-23T07:41:26.676Z,9.90
2022-10-23T07:46:20.303Z,10.00
2022-10-23T07:51:16.532Z,10.30
2022-10-23T07:56:19.457Z,10.50
2022-10-23T08:01:36.258Z,10.70
2022-10-23T08:06:30.889Z,11.00
2022-10-23T08:11:28.935Z,11.20
2022-10-23T08:16:23.109Z,11.40
2022-10-23T08:21:57.327Z,11.50
2022-10-23T08:26:51.470Z,11.50
2022-10-23T08:31:48.465Z,11.70
2022-10-23T08:36:51.632Z,11.80
2022-10-23T08:41:50.729Z,12.10
2022-10-23T08:46:48.828Z,12.50
2022-10-23T08:52:03.901Z,12.90
2022-10-23T08:57:05.114Z,13.20
2022-10-23T09:02:02.867Z,13.30
2022-10-23T09:07:06.860Z,13.40
2022-10-23T09:12:08.720Z,13.50
2022-10-23T09:22:14.652Z,13.70
2022-10-23T09:27:15.916Z,13.90
2022-10-23T09:32:09.872Z,14.20
2022-10-23T09:37:06.148Z,14.40
2022-10-23T09:42:02.539Z,14.50
2022-10-23T09:47:01.304Z,14.70
2022-10-23T09:52:01.463Z,15.00
2022-10-23T09:57:00.053Z,15.40
2022-10-23T10:01:57.612Z,15.70
2022-10-23T10:07:21.678Z,15.90
2022-10-23T10:12:47.779Z,15.90
2022-10-23T10:17:53.659Z,15.90
2022-10-23T10:22:54.356Z,15.90
2022-10-23T10:28:01.394Z,16.30
2022-10-23T10:33:04.276Z,16.60
2022-10-23T10:38:28.927Z,17.10
2022-10-23T10:43:34.993Z,17.60
2022-10-23T10:48:43.587Z,17.90
2022-10-23T10:54:10.286Z,18.30
2022-10-23T10:59:07.858Z,18.50
2022-10-23T11:04:13.031Z,18.40
2022-10-23T11:09:20.789Z,18.80
2022-10-23T11:14:18.075Z,19.10
2022-10-23T11:19:19.511Z,19.30
2022-10-23T11:24:53.388Z,19.50
2022-10-23T11:30:19.923Z,19.70
2022-10-23T11:35:39.540Z,19.90
2022-10-23T11:40:33.864Z,19.90
2022-10-23T11:45:35.952Z,19.90
2022-10-23T11:50:34.016Z,20.10
2022-10-23T11:55:28.855Z,20.20
2022-10-23T12:00:26.636Z,20.20
2022-10-23T12:05:31.750Z,20.10
2022-10-23T12:10:31.661Z,20.30
2022-10-23T12:15:40.582Z,20.50
2022-10-23T12:20:48.339Z,20.70
2022-10-23T12:25:59.763Z,20.80
2022-10-23T12:31:03.077Z,21.20
2022-10-23T12:36:29.008Z,22.30
2022-10-23T12:41:27.802Z,23.10
2022-10-23T12:46:32.057Z,23.40
2022-10-23T12:51:30.003Z,23.40
2022-10-23T12:56:29.399Z,23.30
2022-10-23T13:01:29.424Z,22.90
2022-10-23T13:06:23.771Z,22.50
2022-10-23T13:11:22.593Z,22.00
2022-10-23T13:16:22.552Z,22.00
2022-10-23T13:21:21.769Z,22.90
2022-10-23T13:26:35.212Z,22.60
2022-10-23T13:31:33.640Z,21.70
2022-10-23T13:36:30.267Z,22.50
2022-10-23T13:41:27.490Z,24.00
2022-10-23T13:46:24.597Z,25.40
2022-10-23T13:51:24.475Z,26.20
2022-10-23T13:56:23.224Z,26.30
2022-10-23T14:01:23.764Z,26.40
2022-10-23T14:06:19.461Z,25.70
2022-10-23T14:16:09.784Z,24.90
2022-10-23T14:21:04.137Z,25.30
2022-10-23T14:26:05.343Z,26.00
2022-10-23T14:30:59.155Z,26.20
2022-10-23T14:35:52.872Z,26.20
2022-10-23T14:40:46.567Z,25.70
2022-10-23T14:45:42.055Z,24.20
2022-10-23T14:50:39.004Z,22.00
2022-10-23T14:55:33.099Z,20.50
2022-10-23T15:00:27.097Z,19.70
2022-10-23T15:05:23.819Z,19.30
2022-10-23T15:15:16.938Z,18.50
2022-10-23T15:20:11.574Z,18.30
2022-10-23T15:25:07.984Z,17.90
2022-10-23T15:30:03.202Z,17.60
2022-10-23T15:35:00.392Z,17.30
2022-10-23T15:39:57.183Z,17.00
2022-10-23T15:44:59.143Z,16.70
2022-10-23T15:49:53.522Z,16.60
2022-10-23T15:54:47.781Z,16.20
2022-10-23T15:59:41.399Z,16.00
2022-10-23T16:04:37.050Z,15.90
2022-10-23T16:09:31.307Z,15.70
2022-10-23T16:14:25.407Z,15.60
2022-10-23T16:19:19.085Z,15.40
2022-10-23T16:24:14.169Z,15.20
2022-10-23T16:29:09.455Z,15.00
2022-10-23T16:34:05.801Z,14.80
2022-10-23T16:38:59.536Z,14.70
2022-10-23T16:44:14.769Z,14.50
2022-10-23T16:49:20.105Z,14.30
2022-10-23T16:54:14.747Z,14.20
2022-10-23T16:59:08.429Z,14.10
2022-10-23T17:04:03.511Z,14.00
2022-10-23T17:08:58.044Z,13.80
2022-10-23T17:13:57.155Z,13.80
2022-10-23T17:18:53.190Z,13.70
2022-10-23T17:23:49.814Z,13.60
2022-10-23T17:28:43.955Z,13.50
2022-10-23T17:33:37.661Z,13.40
2022-10-23T17:38:31.493Z,13.30
2022-10-23T17:43:26.628Z,13.30
2022-10-23T17:48:20.124Z,13.20
2022-10-23T17:53:13.783Z,13.10
2022-10-23T17:58:07.591Z,12.90
2022-10-23T18:03:03.640Z,12.80
2022-10-23T18:07:59.833Z,12.70
2022-10-23T18:12:53.437Z,12.50
2022-10-23T18:17:47.241Z,12.40
2022-10-23T18:22:46.242Z,12.40
2022-10-23T18:27:41.659Z,12.40
2022-10-23T18:32:35.401Z,12.20
2022-10-23T18:37:31.726Z,12.10
2022-10-23T18:42:28.334Z,12.00
